createdAt,value
2018-09-13T00:00:43.834Z,4.27
2018-09-13T00:03:12.159Z,4.57
2018-09-13T00:05:40.391Z,3.93
2018-09-13T00:08:08.614Z,4.20
2018-09-13T00:10:36.865Z,4.30
2018-09-13T00:13:05.091Z,4.33
2018-09-13T00:15:33.319Z,4.40
2018-09-13T00:18:01.556Z,4.45
2018-09-13T00:20:29.778Z,4.70
2018-09-13T00:22:58.083Z,4.90
2018-09-13T00:25:26.314Z,4.60
2018-09-13T00:27:54.571Z,4.73
2018-09-13T00:30:22.819Z,4.97
2018-09-13T00:32:51.086Z,4.60
2018-09-13T00:35:19.394Z,4.50
2018-09-13T00:37:47.633Z,4.57
2018-09-13T00:40:16.526Z,4.70
2018-09-13T00:42:44.782Z,4.90
2018-09-13T00:45:13.006Z,5.03
2018-09-13T00:47:43.287Z,5.10
2018-09-13T00:50:12.094Z,4.93
2018-09-13T00:52:40.380Z,5.30
2018-09-13T00:55:08.686Z,5.15
2018-09-13T00:57:37.462Z,5.17
2018-09-13T01:00:05.947Z,5.33
2018-09-13T01:02:34.183Z,5.30
2018-09-13T01:05:02.434Z,5.10
2018-09-13T01:07:30.683Z,5.00
2018-09-13T01:09:58.920Z,5.20
2018-09-13T01:12:27.158Z,5.23
2018-09-13T01:14:55.451Z,5.37
2018-09-13T01:17:23.703Z,5.27
2018-09-13T01:19:51.927Z,5.87
2018-09-13T01:22:20.131Z,5.23
2018-09-13T01:24:52.207Z,5.80
2018-09-13T01:27:20.442Z,5.90
2018-09-13T01:29:48.690Z,6.30
2018-09-13T01:32:16.898Z,5.83
2018-09-13T01:34:45.116Z,5.50
2018-09-13T01:37:13.367Z,5.57
2018-09-13T01:39:41.620Z,5.20
2018-09-13T01:42:09.844Z,5.70
2018-09-13T01:44:38.067Z,5.63
2018-09-13T01:47:06.348Z,6.50
2018-09-13T01:49:34.607Z,6.13
2018-09-13T01:52:02.823Z,6.37
2018-09-13T01:54:31.129Z,6.17
2018-09-13T01:56:59.364Z,6.60
2018-09-13T01:59:27.587Z,6.13
2018-09-13T02:01:55.859Z,6.37
2018-09-13T02:04:24.144Z,6.60
2018-09-13T02:06:52.417Z,6.27
2018-09-13T02:09:20.636Z,6.63
2018-09-13T02:11:48.865Z,6.77
2018-09-13T02:14:17.156Z,6.80
2018-09-13T02:16:45.471Z,6.70
2018-09-13T02:19:13.855Z,7.00
2018-09-13T02:21:42.096Z,6.70
2018-09-13T02:24:10.401Z,6.90
2018-09-13T02:26:38.647Z,6.50
2018-09-13T02:29:06.882Z,6.83
2018-09-13T02:31:35.108Z,7.33
2018-09-13T02:34:03.350Z,7.30
2018-09-13T02:36:31.571Z,7.33
2018-09-13T02:38:59.780Z,7.07
2018-09-13T02:41:28.057Z,7.13
2018-09-13T02:43:56.316Z,7.30
2018-09-13T02:46:24.540Z,7.40
2018-09-13T02:48:52.832Z,7.17
2018-09-13T02:51:21.004Z,7.37
2018-09-13T02:53:49.212Z,7.30
2018-09-13T02:56:17.464Z,7.70
2018-09-13T02:58:45.711Z,7.13
2018-09-13T03:01:13.961Z,7.10
2018-09-13T03:03:42.184Z,7.07
2018-09-13T03:06:10.469Z,7.60
2018-09-13T03:08:38.716Z,7.57
2018-09-13T03:11:06.717Z,7.33
2018-09-13T03:13:34.712Z,7.13
2018-09-13T03:16:02.684Z,7.53
2018-09-13T03:18:30.680Z,7.03
2018-09-13T03:20:58.648Z,7.47
2018-09-13T03:23:26.912Z,7.47
2018-09-13T03:25:54.908Z,7.60
2018-09-13T03:28:22.908Z,7.50
2018-09-13T03:30:51.276Z,7.23
2018-09-13T03:33:19.256Z,6.83
2018-09-13T03:35:47.237Z,7.17
2018-09-13T03:38:15.226Z,7.23
2018-09-13T03:40:43.297Z,6.80
2018-09-13T03:43:11.324Z,6.90
2018-09-13T03:45:39.284Z,7.27
2018-09-13T03:48:07.289Z,6.93
2018-09-13T03:50:35.325Z,7.80
2018-09-13T03:53:03.371Z,7.47
2018-09-13T03:55:31.449Z,7.33
2018-09-13T03:57:59.425Z,6.83
2018-09-13T04:00:27.449Z,7.20
2018-09-13T04:02:55.469Z,7.60
2018-09-13T04:05:23.453Z,7.30
2018-09-13T04:07:51.413Z,7.87
2018-09-13T04:10:19.513Z,7.77
2018-09-13T04:12:48.145Z,7.30
2018-09-13T04:15:16.241Z,7.50
2018-09-13T04:17:44.233Z,7.80
2018-09-13T04:20:12.221Z,7.37
2018-09-13T04:22:40.303Z,7.43
2018-09-13T04:25:08.331Z,7.30
2018-09-13T04:27:36.322Z,7.43
2018-09-13T04:30:04.345Z,7.47
2018-09-13T04:32:32.381Z,6.93
2018-09-13T04:35:00.361Z,7.20
2018-09-13T04:37:28.339Z,7.83
2018-09-13T04:39:56.340Z,7.87
2018-09-13T04:42:24.553Z,7.17
2018-09-13T04:44:52.535Z,7.37
2018-09-13T04:47:20.538Z,7.10
2018-09-13T04:49:48.559Z,7.27
2018-09-13T04:52:16.563Z,7.17
2018-09-13T04:54:44.567Z,7.40
2018-09-13T04:57:12.572Z,8.50
2018-09-13T04:59:40.554Z,7.20
2018-09-13T05:02:08.564Z,7.37
2018-09-13T05:04:36.574Z,7.20
2018-09-13T05:07:04.709Z,8.60
2018-09-13T05:09:32.697Z,7.60
2018-09-13T05:12:00.703Z,7.10
2018-09-13T05:14:28.700Z,7.90
2018-09-13T05:16:56.875Z,7.63
2018-09-13T05:19:24.884Z,7.13
2018-09-13T05:21:52.883Z,6.13
2018-09-13T05:24:20.975Z,7.13
2018-09-13T05:26:48.888Z,7.37
2018-09-13T05:29:16.914Z,7.80
2018-09-13T05:31:45.058Z,7.43
2018-09-13T05:34:12.952Z,7.27
2018-09-13T05:36:40.923Z,7.67
2018-09-13T05:39:11.481Z,7.37
2018-09-13T05:41:39.596Z,6.97
2018-09-13T05:44:07.684Z,6.87
2018-09-13T05:46:35.692Z,7.53
2018-09-13T05:49:03.692Z,6.80
2018-09-13T05:51:31.720Z,6.60
2018-09-13T05:53:59.836Z,6.70
2018-09-13T05:56:27.912Z,6.70
2018-09-13T05:58:56.613Z,6.50
2018-09-13T06:01:24.684Z,6.53
2018-09-13T06:03:52.673Z,6.60
2018-09-13T06:06:20.636Z,6.10
2018-09-13T06:08:48.735Z,7.23
2018-09-13T06:11:16.789Z,6.90
2018-09-13T06:13:44.756Z,6.57
2018-09-13T06:16:12.744Z,6.37
2018-09-13T06:18:40.805Z,6.43
2018-09-13T06:21:08.844Z,6.00
2018-09-13T06:23:36.907Z,6.20
2018-09-13T06:26:05.077Z,5.60
2018-09-13T06:28:33.148Z,5.60
2018-09-13T06:31:01.117Z,6.00
2018-09-13T06:33:29.112Z,5.80
2018-09-13T06:35:57.088Z,5.73
2018-09-13T06:38:25.170Z,5.80
2018-09-13T06:40:53.134Z,5.70
2018-09-13T06:43:21.395Z,6.43
2018-09-13T06:45:49.670Z,6.17
2018-09-13T06:48:17.982Z,6.10
2018-09-13T06:50:46.285Z,6.03
2018-09-13T06:53:14.581Z,5.30
2018-09-13T06:55:43.037Z,5.63
2018-09-13T06:58:11.318Z,5.60
2018-09-13T07:00:39.585Z,5.20
2018-09-13T07:03:08.797Z,5.40
2018-09-13T07:05:37.061Z,4.73
2018-09-13T07:08:05.325Z,5.03
2018-09-13T07:10:33.736Z,5.70
2018-09-13T07:13:01.977Z,5.53
2018-09-13T07:15:30.210Z,4.80
2018-09-13T07:17:58.445Z,5.37
2018-09-13T07:20:26.694Z,5.40
2018-09-13T07:22:55.001Z,5.37
2018-09-13T07:25:23.017Z,5.40
2018-09-13T07:27:51.067Z,4.97
2018-09-13T07:30:19.089Z,5.23
2018-09-13T07:32:47.310Z,5.17
2018-09-13T07:35:15.532Z,4.10
2018-09-13T07:37:43.795Z,4.80
2018-09-13T07:40:12.053Z,4.30
2018-09-13T07:42:40.488Z,4.60
2018-09-13T07:45:08.678Z,4.77
2018-09-13T07:47:36.946Z,4.30
2018-09-13T07:50:05.218Z,4.97
2018-09-13T07:52:33.453Z,4.83
2018-09-13T07:55:01.692Z,4.60
2018-09-13T07:57:29.937Z,5.30
2018-09-13T07:59:58.258Z,4.90
2018-09-13T08:02:26.514Z,5.07
2018-09-13T08:04:54.774Z,5.30
2018-09-13T08:07:23.102Z,4.97
2018-09-13T08:09:51.346Z,4.77
2018-09-13T08:12:19.594Z,5.03
2018-09-13T08:14:47.802Z,4.87
2018-09-13T08:17:16.046Z,5.03
2018-09-13T08:19:44.310Z,5.60
2018-09-13T08:22:12.602Z,4.75
2018-09-13T08:24:40.953Z,5.83
2018-09-13T08:27:09.279Z,5.77
2018-09-13T08:29:37.462Z,5.23
2018-09-13T08:32:05.703Z,4.90
2018-09-13T08:34:34.003Z,5.20
2018-09-13T08:37:02.006Z,5.33
2018-09-13T08:39:29.941Z,4.50
2018-09-13T08:41:58.226Z,4.33
2018-09-13T08:44:26.229Z,5.07
2018-09-13T08:46:54.210Z,5.03
2018-09-13T08:49:22.207Z,5.40
2018-09-13T08:51:50.281Z,5.10
2018-09-13T08:54:18.258Z,5.00
2018-09-13T08:56:46.299Z,4.43
2018-09-13T08:59:14.314Z,5.37
2018-09-13T09:01:42.307Z,4.83
2018-09-13T09:04:10.319Z,4.90
2018-09-13T09:06:38.295Z,5.57
2018-09-13T09:09:08.523Z,4.73
2018-09-13T09:11:36.498Z,4.10
2018-09-13T09:14:04.492Z,4.60
2018-09-13T09:16:32.612Z,4.37
2018-09-13T09:19:00.514Z,4.27
2018-09-13T09:21:28.499Z,4.70
2018-09-13T09:23:56.664Z,4.10
2018-09-13T09:26:24.631Z,3.43
2018-09-13T09:28:52.640Z,3.77
2018-09-13T09:31:20.638Z,4.03
2018-09-13T09:33:48.599Z,3.67
2018-09-13T09:36:16.583Z,3.00
2018-09-13T09:38:44.584Z,2.80
2018-09-13T09:41:12.551Z,3.17
2018-09-13T09:43:40.583Z,2.80
2018-09-13T09:46:08.531Z,2.83
2018-09-13T09:48:36.567Z,3.33
2018-09-13T09:51:04.595Z,3.40
2018-09-13T09:53:32.579Z,3.40
2018-09-13T09:56:00.625Z,3.97
2018-09-13T09:58:28.579Z,3.77
2018-09-13T10:01:02.488Z,3.70
2018-09-13T10:03:30.451Z,3.40
2018-09-13T10:05:58.467Z,3.57
2018-09-13T10:08:26.452Z,3.43
2018-09-13T10:10:54.427Z,3.57
2018-09-13T10:13:22.422Z,3.67
2018-09-13T10:15:55.876Z,4.97
2018-09-13T10:18:29.395Z,3.83
2018-09-13T10:21:02.752Z,3.10
2018-09-13T10:23:36.251Z,3.50
2018-09-13T10:26:09.703Z,4.90
2018-09-13T10:28:43.296Z,3.87
2018-09-13T10:31:16.641Z,3.60
2018-09-13T10:33:50.316Z,3.20
2018-09-13T10:36:23.853Z,3.20
2018-09-13T10:38:57.251Z,3.20
2018-09-13T10:41:30.796Z,3.47
2018-09-13T10:44:04.255Z,4.00
2018-09-13T10:46:32.260Z,3.43
2018-09-13T10:49:05.776Z,3.70
2018-09-13T10:51:39.333Z,3.87
2018-09-13T10:54:15.565Z,3.73
2018-09-13T10:56:43.585Z,3.77
2018-09-13T10:59:11.658Z,3.43
2018-09-13T11:01:39.757Z,3.50
2018-09-13T11:04:07.811Z,3.47
2018-09-13T11:06:35.733Z,3.83
2018-09-13T11:09:04.860Z,3.57
2018-09-13T11:11:32.864Z,3.57
2018-09-13T11:14:37.465Z,3.60
2018-09-13T11:17:05.485Z,3.63
2018-09-13T11:19:33.508Z,3.40
2018-09-13T11:22:02.149Z,3.70
2018-09-13T11:24:30.220Z,3.30
2018-09-13T11:26:59.589Z,3.35
2018-09-13T11:29:27.545Z,3.13
2018-09-13T11:31:56.636Z,2.90
2018-09-13T11:34:24.673Z,2.80
2018-09-13T11:36:52.996Z,3.03
2018-09-13T11:39:20.956Z,3.20
2018-09-13T11:41:48.969Z,2.90
2018-09-13T11:44:16.965Z,2.90
2018-09-13T11:46:44.968Z,2.97
2018-09-13T11:49:12.972Z,2.30
2018-09-13T11:51:41.025Z,2.70
2018-09-13T11:54:09.029Z,3.20
2018-09-13T11:56:37.020Z,2.73
2018-09-13T11:59:05.053Z,2.40
2018-09-13T12:01:33.057Z,2.50
2018-09-13T12:04:01.076Z,2.60
2018-09-13T12:06:29.104Z,2.73
2018-09-13T12:08:57.692Z,3.60
2018-09-13T12:11:25.770Z,2.97
2018-09-13T12:13:53.785Z,3.33
2018-09-13T12:16:21.862Z,2.90
2018-09-13T12:18:49.833Z,2.90
2018-09-13T12:21:17.847Z,2.60
2018-09-13T12:23:45.833Z,2.50
2018-09-13T12:26:13.841Z,2.73
2018-09-13T12:28:41.853Z,2.37
2018-09-13T12:31:09.880Z,2.70
2018-09-13T12:33:38.190Z,2.50
2018-09-13T12:36:06.690Z,2.80
2018-09-13T12:38:34.979Z,2.57
2018-09-13T12:41:03.238Z,3.50
2018-09-13T12:43:31.241Z,2.30
2018-09-13T12:45:59.755Z,2.60
2018-09-13T12:48:27.993Z,3.43
2018-09-13T12:50:56.334Z,2.80
2018-09-13T12:53:24.570Z,3.10
2018-09-13T12:55:53.450Z,2.90
2018-09-13T12:58:21.766Z,2.50
2018-09-13T13:00:50.146Z,2.47
2018-09-13T13:03:18.580Z,2.53
2018-09-13T13:05:46.878Z,2.57
2018-09-13T13:08:14.877Z,2.67
2018-09-13T13:10:42.992Z,2.70
2018-09-13T13:13:11.058Z,3.00
2018-09-13T13:15:39.346Z,2.53
2018-09-13T13:18:07.621Z,2.80
2018-09-13T13:20:35.926Z,2.57
2018-09-13T13:23:03.906Z,2.60
2018-09-13T13:25:31.966Z,2.30
2018-09-13T13:28:00.182Z,2.70
2018-09-13T13:30:28.482Z,2.57
2018-09-13T13:32:56.742Z,2.47
2018-09-13T13:35:24.979Z,2.47
2018-09-13T13:37:53.210Z,2.37
2018-09-13T13:40:21.474Z,2.70
2018-09-13T13:42:49.735Z,2.67
2018-09-13T13:45:17.978Z,2.40
2018-09-13T13:47:46.254Z,2.20
2018-09-13T13:50:14.491Z,2.53
2018-09-13T13:52:42.833Z,2.27
2018-09-13T13:55:11.105Z,2.50
2018-09-13T13:57:39.354Z,2.60
2018-09-13T14:00:07.811Z,2.30
2018-09-13T14:02:36.075Z,2.20
2018-09-13T14:05:04.452Z,2.67
2018-09-13T14:07:32.715Z,2.20
2018-09-13T14:10:01.014Z,1.80
2018-09-13T14:12:29.419Z,1.67
2018-09-13T14:14:57.759Z,2.50
2018-09-13T14:17:26.007Z,2.37
2018-09-13T14:19:54.359Z,2.57
2018-09-13T14:22:22.640Z,2.50
2018-09-13T14:24:51.011Z,2.10
2018-09-13T14:27:19.399Z,2.20
2018-09-13T14:29:47.727Z,2.00
2018-09-13T14:32:16.044Z,2.50
2018-09-13T14:34:45.252Z,2.40
2018-09-13T14:37:13.549Z,2.27
2018-09-13T14:39:41.928Z,3.63
2018-09-13T14:42:10.189Z,2.40
2018-09-13T14:44:38.420Z,2.50
2018-09-13T14:47:06.692Z,2.30
2018-09-13T14:49:34.937Z,3.23
2018-09-13T14:52:03.212Z,2.60
2018-09-13T14:54:38.033Z,2.63
2018-09-13T14:57:06.320Z,2.87
2018-09-13T14:59:34.573Z,2.70
2018-09-13T15:02:02.860Z,2.50
2018-09-13T15:04:31.601Z,2.40
2018-09-13T15:07:00.058Z,2.67
2018-09-13T15:09:28.216Z,2.13
2018-09-13T15:11:56.453Z,2.50
2018-09-13T15:14:24.693Z,2.60
2018-09-13T15:16:52.990Z,2.70
2018-09-13T15:19:21.271Z,2.37
2018-09-13T15:21:49.520Z,2.13
2018-09-13T15:24:17.878Z,4.10
2018-09-13T15:26:46.194Z,2.37
2018-09-13T15:29:14.728Z,2.10
2018-09-13T15:31:43.032Z,2.20
2018-09-13T15:34:11.344Z,2.20
2018-09-13T15:36:39.657Z,3.13
2018-09-13T15:39:09.777Z,2.73
2018-09-13T15:41:38.064Z,2.30
2018-09-13T15:44:06.325Z,2.13
2018-09-13T15:46:34.576Z,2.13
2018-09-13T15:49:02.940Z,2.03
2018-09-13T15:51:31.232Z,2.87
2018-09-13T15:53:59.514Z,3.53
2018-09-13T15:56:27.736Z,2.00
2018-09-13T15:58:56.031Z,1.97
2018-09-13T16:01:24.281Z,2.37
2018-09-13T16:03:52.728Z,1.87
2018-09-13T16:06:20.971Z,2.13
2018-09-13T16:08:49.233Z,2.43
2018-09-13T16:11:17.452Z,2.50
2018-09-13T16:13:46.801Z,2.23
2018-09-13T16:16:15.057Z,2.10
2018-09-13T16:18:43.365Z,1.70
2018-09-13T16:21:11.683Z,1.93
2018-09-13T16:23:39.901Z,2.20
2018-09-13T16:26:08.227Z,2.53
2018-09-13T16:28:36.489Z,2.37
2018-09-13T16:31:04.849Z,2.37
2018-09-13T16:33:33.145Z,2.30
2018-09-13T16:36:01.729Z,2.33
2018-09-13T16:38:35.666Z,2.80
2018-09-13T16:41:09.314Z,2.87
2018-09-13T16:43:42.995Z,2.63
2018-09-13T16:46:17.450Z,2.20
2018-09-13T16:48:46.280Z,2.30
2018-09-13T16:51:14.653Z,2.17
2018-09-13T16:53:43.341Z,2.23
2018-09-13T16:56:11.989Z,2.03
2018-09-13T16:58:40.233Z,2.37
2018-09-13T17:01:08.193Z,2.00
2018-09-13T17:03:36.201Z,2.90
2018-09-13T17:06:04.198Z,2.20
2018-09-13T17:08:32.205Z,2.77
2018-09-13T17:11:00.193Z,2.53
2018-09-13T17:13:28.297Z,2.20
2018-09-13T17:15:56.254Z,2.63
2018-09-13T17:18:24.242Z,2.17
2018-09-13T17:20:52.229Z,2.57
2018-09-13T17:23:20.965Z,2.33
2018-09-13T17:25:49.525Z,2.50
2018-09-13T17:28:17.785Z,2.87
2018-09-13T17:30:46.693Z,2.00
2018-09-13T17:33:15.042Z,2.10
2018-09-13T17:35:43.405Z,2.20
2018-09-13T17:38:11.686Z,2.27
2018-09-13T17:40:39.923Z,2.33
2018-09-13T17:43:08.161Z,2.30
2018-09-13T17:45:36.434Z,2.07
2018-09-13T17:48:04.820Z,2.23
2018-09-13T17:50:32.786Z,2.40
2018-09-13T17:53:01.646Z,2.03
2018-09-13T17:55:32.262Z,2.50
2018-09-13T17:58:01.569Z,2.43
2018-09-13T18:00:29.848Z,2.60
2018-09-13T18:02:58.214Z,2.37
2018-09-13T18:05:26.537Z,2.33
2018-09-13T18:07:54.766Z,2.23
2018-09-13T18:10:23.038Z,2.37
2018-09-13T18:12:51.315Z,1.93
2018-09-13T18:15:19.616Z,2.03
2018-09-13T18:17:47.826Z,3.17
2018-09-13T18:20:16.084Z,3.30
2018-09-13T18:22:44.445Z,5.13
2018-09-13T18:25:12.686Z,6.17
2018-09-13T18:27:40.958Z,5.70
2018-09-13T18:30:09.223Z,4.47
2018-09-13T18:32:37.471Z,4.20
2018-09-13T18:35:05.979Z,6.37
2018-09-13T18:37:34.460Z,5.20
2018-09-13T18:40:02.772Z,6.10
2018-09-13T18:42:31.196Z,5.10
2018-09-13T18:45:00.494Z,2.90
2018-09-13T18:47:28.812Z,2.37
2018-09-13T18:49:57.064Z,2.20
2018-09-13T18:52:25.789Z,2.30
2018-09-13T18:54:54.068Z,2.17
2018-09-13T18:57:22.428Z,2.70
2018-09-13T18:59:50.656Z,2.40
2018-09-13T19:02:19.635Z,2.50
2018-09-13T19:04:47.908Z,2.30
2018-09-13T19:07:16.132Z,2.58
2018-09-13T19:09:44.435Z,3.00
2018-09-13T19:12:12.720Z,2.80
2018-09-13T19:14:40.947Z,2.70
2018-09-13T19:17:09.427Z,2.83
2018-09-13T19:19:38.733Z,3.00
2018-09-13T19:22:06.993Z,3.07
2018-09-13T19:24:35.238Z,2.60
2018-09-13T19:27:03.565Z,3.17
2018-09-13T19:29:31.557Z,3.20
2018-09-13T19:32:00.276Z,2.60
2018-09-13T19:34:28.276Z,2.53
2018-09-13T19:36:56.256Z,3.47
2018-09-13T19:39:24.301Z,3.40
2018-09-13T19:41:52.377Z,2.70
2018-09-13T19:44:20.375Z,3.17
2018-09-13T19:46:48.365Z,3.00
2018-09-13T19:49:16.608Z,2.90
2018-09-13T19:51:44.861Z,3.17
2018-09-13T19:54:13.269Z,3.00
2018-09-13T19:56:41.546Z,3.10
2018-09-13T19:59:09.793Z,3.23
2018-09-13T20:04:12.976Z,2.62
2018-09-13T20:06:41.218Z,2.60
2018-09-13T20:09:10.897Z,2.60
2018-09-13T20:11:39.559Z,2.50
2018-09-13T20:14:07.891Z,2.57
2018-09-13T20:16:36.164Z,2.40
2018-09-13T20:19:04.474Z,2.57
2018-09-13T20:21:32.785Z,2.70
2018-09-13T20:24:01.253Z,3.40
2018-09-13T20:26:29.517Z,3.60
2018-09-13T20:28:57.925Z,2.70
2018-09-13T20:31:26.016Z,2.83
2018-09-13T20:33:54.261Z,3.27
2018-09-13T20:36:22.547Z,2.70
2018-09-13T20:38:50.979Z,3.03
2018-09-13T20:41:19.217Z,3.40
2018-09-13T20:43:47.472Z,3.57
2018-09-13T20:46:15.778Z,3.10
2018-09-13T20:48:44.185Z,3.20
2018-09-13T20:51:12.530Z,2.93
2018-09-13T20:53:40.724Z,2.53
2018-09-13T20:56:09.029Z,2.50
2018-09-13T20:58:37.317Z,2.60
2018-09-13T21:01:05.646Z,2.60
2018-09-13T21:03:33.890Z,2.83
2018-09-13T21:06:02.145Z,2.50
2018-09-13T21:08:30.422Z,3.10
2018-09-13T21:10:58.700Z,2.37
2018-09-13T21:13:26.981Z,2.67
2018-09-13T21:15:55.223Z,2.50
2018-09-13T21:18:23.497Z,3.10
2018-09-13T21:20:51.494Z,2.70
2018-09-13T21:23:19.489Z,2.50
2018-09-13T21:25:47.576Z,2.80
2018-09-13T21:28:15.553Z,2.43
2018-09-13T21:30:43.751Z,2.73
2018-09-13T21:33:12.002Z,2.40
2018-09-13T21:35:40.265Z,2.87
2018-09-13T21:38:08.485Z,2.80
2018-09-13T21:40:36.753Z,2.73
2018-09-13T21:43:05.037Z,2.90
2018-09-13T21:45:33.397Z,2.93
2018-09-13T21:48:02.441Z,3.00
2018-09-13T21:50:30.709Z,3.07
2018-09-13T21:52:59.810Z,2.73
2018-09-13T21:55:28.086Z,2.50
2018-09-13T21:57:56.353Z,2.40
2018-09-13T22:00:24.611Z,3.10
2018-09-13T22:02:52.840Z,3.07
2018-09-13T22:05:21.059Z,3.07
2018-09-13T22:07:49.287Z,2.87
2018-09-13T22:10:17.575Z,3.30
2018-09-13T22:12:45.799Z,2.93
2018-09-13T22:15:14.083Z,3.30
2018-09-13T22:17:42.387Z,2.90
2018-09-13T22:20:10.622Z,3.00
2018-09-13T22:22:38.913Z,2.97
2018-09-13T22:25:07.353Z,2.80
2018-09-13T22:27:35.589Z,3.27
2018-09-13T22:30:03.632Z,3.33
2018-09-13T22:32:31.629Z,3.03
2018-09-13T22:34:59.637Z,3.53
2018-09-13T22:37:27.669Z,3.13
2018-09-13T22:39:55.639Z,4.00
2018-09-13T22:42:23.621Z,3.03
2018-09-13T22:44:55.928Z,3.10
2018-09-13T22:47:23.928Z,3.37
2018-09-13T22:49:51.897Z,3.50
2018-09-13T22:52:19.904Z,3.73
2018-09-13T22:54:50.348Z,3.10
2018-09-13T22:57:18.677Z,3.10
2018-09-13T22:59:46.661Z,3.83
2018-09-13T23:02:14.645Z,3.57
2018-09-13T23:04:42.658Z,3.60
2018-09-13T23:07:10.677Z,3.13
2018-09-13T23:09:38.861Z,3.40
2018-09-13T23:12:06.954Z,3.53
2018-09-13T23:14:34.981Z,3.40
2018-09-13T23:17:02.966Z,4.07
2018-09-13T23:19:30.976Z,3.37
2018-09-13T23:21:58.996Z,3.90
2018-09-13T23:24:26.972Z,3.60
2018-09-13T23:26:54.989Z,3.63
2018-09-13T23:29:22.987Z,3.80
2018-09-13T23:31:51.035Z,4.40
2018-09-13T23:34:19.043Z,4.00
2018-09-13T23:36:47.038Z,4.10
2018-09-13T23:39:15.132Z,4.20
2018-09-13T23:41:43.161Z,4.00
2018-09-13T23:44:11.129Z,3.97
2018-09-13T23:46:39.112Z,3.90
2018-09-13T23:49:07.161Z,4.20
2018-09-13T23:51:35.157Z,4.00
2018-09-13T23:54:03.138Z,3.83
2018-09-13T23:56:31.230Z,4.20
2018-09-13T23:58:59.221Z,4.20
